sensor_id;sensor_type;location;lat;lon;timestamp;temperature;humidity
5631;DHT22;2837;50.990;7.124;2022-08-01T05:01:10;21.10;99.90
5631;DHT22;2837;50.990;7.124;2022-08-01T05:03:36;21.10;99.90
5631;DHT22;2837;50.990;7.124;2022-08-01T05:06:01;21.10;99.90
5631;DHT22;2837;50.990;7.124;2022-08-01T05:08:27;21.10;99.90
5631;DHT22;2837;50.990;7.124;2022-08-01T05:10:52;21.10;99.90
5631;DHT22;2837;50.990;7.124;2022-08-01T05:13:19;21.10;99.90
5631;DHT22;2837;50.990;7.124;2022-08-01T05:15:44;21.10;99.90
5631;DHT22;2837;50.990;7.124;2022-08-01T05:18:10;21.10;99.90
5631;DHT22;2837;50.990;7.124;2022-08-01T05:20:36;21.10;99.90
5631;DHT22;2837;50.990;7.124;2022-08-01T05:23:03;21.20;99.90
5631;DHT22;2837;50.990;7.124;2022-08-01T05:25:29;21.10;99.90
5631;DHT22;2837;50.990;7.124;2022-08-01T05:27:54;21.20;99.90
5631;DHT22;2837;50.990;7.124;2022-08-01T05:30:20;21.10;99.90
5631;DHT22;2837;50.990;7.124;2022-08-01T05:32:46;21.20;99.90
5631;DHT22;2837;50.990;7.124;2022-08-01T05:35:11;21.20;99.90
5631;DHT22;2837;50.990;7.124;2022-08-01T05:37:37;21.20;99.90
5631;DHT22;2837;50.990;7.124;2022-08-01T05:40:03;21.20;99.90
5631;DHT22;2837;50.990;7.124;2022-08-01T05:42:29;21.20;99.90
5631;DHT22;2837;50.990;7.124;2022-08-01T05:44:55;21.20;99.90
5631;DHT22;2837;50.990;7.124;2022-08-01T05:47:21;21.20;99.90
5631;DHT22;2837;50.990;7.124;2022-08-01T05:49:46;21.20;99.90
5631;DHT22;2837;50.990;7.124;2022-08-01T05:52:12;21.20;99.90
5631;DHT22;2837;50.990;7.124;2022-08-01T05:54:38;21.20;99.90
5631;DHT22;2837;50.990;7.124;2022-08-01T05:57:04;21.20;99.90
5631;DHT22;2837;50.990;7.124;2022-08-01T05:59:30;21.20;99.90
5631;DHT22;2837;50.990;7.124;2022-08-01T06:01:55;21.20;99.90
5631;DHT22;2837;50.990;7.124;2022-08-01T06:04:21;21.30;99.90
5631;DHT22;2837;50.990;7.124;2022-08-01T06:06:47;21.20;99.90
5631;DHT22;2837;50.990;7.124;2022-08-01T06:09:13;21.20;99.90
5631;DHT22;2837;50.990;7.124;2022-08-01T06:11:38;21.20;99.90
5631;DHT22;2837;50.990;7.124;2022-08-01T06:14:04;21.20;99.90
5631;DHT22;2837;50.990;7.124;2022-08-01T06:16:29;21.30;99.90
5631;DHT22;2837;50.990;7.124;2022-08-01T06:18:55;21.20;99.90
5631;DHT22;2837;50.990;7.124;2022-08-01T06:21:20;21.30;99.90
5631;DHT22;2837;50.990;7.124;2022-08-01T06:23:46;21.20;99.90
5631;DHT22;2837;50.990;7.124;2022-08-01T06:26:12;21.30;99.90
5631;DHT22;2837;50.990;7.124;2022-08-01T06:28:37;21.30;99.90
5631;DHT22;2837;50.990;7.124;2022-08-01T06:31:04;21.30;99.90
5631;DHT22;2837;50.990;7.124;2022-08-01T06:33:29;21.30;99.90
5631;DHT22;2837;50.990;7.124;2022-08-01T06:35:55;21.30;99.90
5631;DHT22;2837;50.990;7.124;2022-08-01T06:38:21;21.30;99.90
5631;DHT22;2837;50.990;7.124;2022-08-01T06:40:47;21.40;99.90
5631;DHT22;2837;50.990;7.124;2022-08-01T06:43:13;21.40;99.90
5631;DHT22;2837;50.990;7.124;2022-08-01T06:45:39;21.40;99.90
5631;DHT22;2837;50.990;7.124;2022-08-01T06:48:05;21.40;99.90
5631;DHT22;2837;50.990;7.124;2022-08-01T06:50:31;21.40;99.90
5631;DHT22;2837;50.990;7.124;2022-08-01T06:52:57;21.40;99.90
5631;DHT22;2837;50.990;7.124;2022-08-01T06:55:22;21.40;99.90
5631;DHT22;2837;50.990;7.124;2022-08-01T06:57:52;21.50;99.90
5631;DHT22;2837;50.990;7.124;2022-08-01T07:00:20;21.50;99.90
5631;DHT22;2837;50.990;7.124;2022-08-01T07:02:49;21.50;99.90
5631;DHT22;2837;50.990;7.124;2022-08-01T07:05:14;21.50;99.90
5631;DHT22;2837;50.990;7.124;2022-08-01T07:07:40;21.50;99.90
5631;DHT22;2837;50.990;7.124;2022-08-01T07:10:06;21.50;99.90
5631;DHT22;2837;50.990;7.124;2022-08-01T07:12:33;21.50;99.90
5631;DHT22;2837;50.990;7.124;2022-08-01T07:15:03;21.60;99.90
5631;DHT22;2837;50.990;7.124;2022-08-01T07:17:29;21.60;99.90
5631;DHT22;2837;50.990;7.124;2022-08-01T07:19:54;21.60;99.90
5631;DHT22;2837;50.990;7.124;2022-08-01T07:22:20;21.60;99.90
5631;DHT22;2837;50.990;7.124;2022-08-01T07:24:46;21.60;99.90
5631;DHT22;2837;50.990;7.124;2022-08-01T07:27:12;21.60;99.90
5631;DHT22;2837;50.990;7.124;2022-08-01T07:29:37;21.60;99.90
5631;DHT22;2837;50.990;7.124;2022-08-01T07:32:03;21.60;99.90
5631;DHT22;2837;50.990;7.124;2022-08-01T07:34:29;21.60;99.90
5631;DHT22;2837;50.990;7.124;2022-08-01T07:36:54;21.70;99.90
5631;DHT22;2837;50.990;7.124;2022-08-01T07:39:20;21.70;99.90
5631;DHT22;2837;50.990;7.124;2022-08-01T07:41:46;21.70;99.90
5631;DHT22;2837;50.990;7.124;2022-08-01T07:44:12;21.70;99.90
5631;DHT22;2837;50.990;7.124;2022-08-01T07:46:37;21.70;99.90
5631;DHT22;2837;50.990;7.124;2022-08-01T07:49:03;21.60;99.90
5631;DHT22;2837;50.990;7.124;2022-08-01T07:51:28;21.70;99.90
5631;DHT22;2837;50.990;7.124;2022-08-01T07:53:54;21.60;99.90
5631;DHT22;2837;50.990;7.124;2022-08-01T07:56:19;21.70;99.90
5631;DHT22;2837;50.990;7.124;2022-08-01T07:58:45;21.70;99.90
5631;DHT22;2837;50.990;7.124;2022-08-01T08:01:12;21.70;99.90
5631;DHT22;2837;50.990;7.124;2022-08-01T08:03:37;21.80;99.90
5631;DHT22;2837;50.990;7.124;2022-08-01T08:06:03;21.80;99.90
5631;DHT22;2837;50.990;7.124;2022-08-01T08:08:29;21.80;99.90
5631;DHT22;2837;50.990;7.124;2022-08-01T08:10:55;21.80;99.90
5631;DHT22;2837;50.990;7.124;2022-08-01T08:13:20;21.70;99.90
5631;DHT22;2837;50.990;7.124;2022-08-01T08:15:47;21.70;99.90
5631;DHT22;2837;50.990;7.124;2022-08-01T08:18:12;21.80;99.90
5631;DHT22;2837;50.990;7.124;2022-08-01T08:20:38;21.80;99.90
5631;DHT22;2837;50.990;7.124;2022-08-01T08:23:03;21.80;99.90
5631;DHT22;2837;50.990;7.124;2022-08-01T08:25:49;21.70;99.90
5631;DHT22;2837;50.990;7.124;2022-08-01T08:28:14;21.80;99.90
5631;DHT22;2837;50.990;7.124;2022-08-01T08:30:40;21.80;99.90
5631;DHT22;2837;50.990;7.124;2022-08-01T08:33:05;21.80;99.90
5631;DHT22;2837;50.990;7.124;2022-08-01T08:35:31;21.80;99.90
5631;DHT22;2837;50.990;7.124;2022-08-01T08:37:57;21.80;99.90
5631;DHT22;2837;50.990;7.124;2022-08-01T08:40:29;21.80;99.90
5631;DHT22;2837;50.990;7.124;2022-08-01T08:42:55;21.80;99.90
5631;DHT22;2837;50.990;7.124;2022-08-01T08:45:22;21.80;99.90
5631;DHT22;2837;50.990;7.124;2022-08-01T08:47:48;21.80;99.90
5631;DHT22;2837;50.990;7.124;2022-08-01T08:50:15;21.80;99.90
5631;DHT22;2837;50.990;7.124;2022-08-01T08:52:42;21.90;99.90
5631;DHT22;2837;50.990;7.124;2022-08-01T08:55:09;21.90;99.90
5631;DHT22;2837;50.990;7.124;2022-08-01T08:57:39;21.90;99.90
5631;DHT22;2837;50.990;7.124;2022-08-01T09:00:05;21.90;99.90
5631;DHT22;2837;50.990;7.124;2022-08-01T09:02:31;21.90;99.90
5631;DHT22;2837;50.990;7.124;2022-08-01T09:04:57;21.90;99.90
5631;DHT22;2837;50.990;7.124;2022-08-01T09:07:23;21.90;99.90
5631;DHT22;2837;50.990;7.124;2022-08-01T09:09:51;21.90;99.90
5631;DHT22;2837;50.990;7.124;2022-08-01T09:12:18;21.90;99.90
5631;DHT22;2837;50.990;7.124;2022-08-01T09:14:45;22.00;99.90
5631;DHT22;2837;50.990;7.124;2022-08-01T09:17:11;22.00;99.90
5631;DHT22;2837;50.990;7.124;2022-08-01T09:22:21;22.00;99.90
5631;DHT22;2837;50.990;7.124;2022-08-01T09:24:59;22.00;99.90
5631;DHT22;2837;50.990;7.124;2022-08-01T09:27:24;22.00;99.90
5631;DHT22;2837;50.990;7.124;2022-08-01T09:29:54;22.00;99.90
5631;DHT22;2837;50.990;7.124;2022-08-01T09:32:20;22.00;99.90
5631;DHT22;2837;50.990;7.124;2022-08-01T09:34:46;22.10;99.90
5631;DHT22;2837;50.990;7.124;2022-08-01T09:37:12;22.10;99.90
5631;DHT22;2837;50.990;7.124;2022-08-01T09:39:42;22.10;99.90
5631;DHT22;2837;50.990;7.124;2022-08-01T09:42:27;22.10;99.90
5631;DHT22;2837;50.990;7.124;2022-08-01T09:44:53;22.10;99.90
5631;DHT22;2837;50.990;7.124;2022-08-01T09:47:19;22.10;99.90
5631;DHT22;2837;50.990;7.124;2022-08-01T09:49:56;22.10;99.90
5631;DHT22;2837;50.990;7.124;2022-08-01T09:52:23;22.10;99.90
5631;DHT22;2837;50.990;7.124;2022-08-01T09:54:55;22.10;99.90
5631;DHT22;2837;50.990;7.124;2022-08-01T09:57:21;22.20;99.90
5631;DHT22;2837;50.990;7.124;2022-08-01T09:59:49;22.20;99.90
5631;DHT22;2837;50.990;7.124;2022-08-01T10:02:35;22.20;99.90
5631;DHT22;2837;50.990;7.124;2022-08-01T10:05:04;22.20;99.90
5631;DHT22;2837;50.990;7.124;2022-08-01T10:07:30;22.20;99.90
5631;DHT22;2837;50.990;7.124;2022-08-01T10:10:12;22.20;99.90
5631;DHT22;2837;50.990;7.124;2022-08-01T10:12:40;22.20;99.90
5631;DHT22;2837;50.990;7.124;2022-08-01T10:15:07;22.20;99.90
5631;DHT22;2837;50.990;7.124;2022-08-01T10:17:34;22.20;99.90
5631;DHT22;2837;50.990;7.124;2022-08-01T10:20:02;22.20;99.90
5631;DHT22;2837;50.990;7.124;2022-08-01T10:22:30;22.20;99.90
5631;DHT22;2837;50.990;7.124;2022-08-01T10:24:56;22.20;99.90
5631;DHT22;2837;50.990;7.124;2022-08-01T10:27:25;22.20;99.90
5631;DHT22;2837;50.990;7.124;2022-08-01T10:29:58;22.30;99.90
5631;DHT22;2837;50.990;7.124;2022-08-01T10:32:31;22.30;99.90
5631;DHT22;2837;50.990;7.124;2022-08-01T10:34:58;22.30;99.90
5631;DHT22;2837;50.990;7.124;2022-08-01T10:37:24;22.30;99.90
5631;DHT22;2837;50.990;7.124;2022-08-01T10:39:53;22.30;99.90
5631;DHT22;2837;50.990;7.124;2022-08-01T10:42:19;22.30;99.90
5631;DHT22;2837;50.990;7.124;2022-08-01T10:44:46;22.30;99.90
5631;DHT22;2837;50.990;7.124;2022-08-01T10:47:15;22.30;99.90
5631;DHT22;2837;50.990;7.124;2022-08-01T10:49:47;22.30;99.90
5631;DHT22;2837;50.990;7.124;2022-08-01T10:52:19;22.30;99.90
5631;DHT22;2837;50.990;7.124;2022-08-01T10:54:46;22.30;99.90
5631;DHT22;2837;50.990;7.124;2022-08-01T10:57:12;22.30;99.90
5631;DHT22;2837;50.990;7.124;2022-08-01T10:59:49;22.30;99.90
5631;DHT22;2837;50.990;7.124;2022-08-01T11:02:33;22.30;99.90
5631;DHT22;2837;50.990;7.124;2022-08-01T11:05:07;22.30;99.90
5631;DHT22;2837;50.990;7.124;2022-08-01T11:07:45;22.30;99.90
5631;DHT22;2837;50.990;7.124;2022-08-01T11:10:39;22.30;99.90
5631;DHT22;2837;50.990;7.124;2022-08-01T11:13:05;22.40;99.90
5631;DHT22;2837;50.990;7.124;2022-08-01T11:15:34;22.40;99.90
5631;DHT22;2837;50.990;7.124;2022-08-01T11:18:03;22.40;99.90
5631;DHT22;2837;50.990;7.124;2022-08-01T11:20:32;22.40;99.90
5631;DHT22;2837;50.990;7.124;2022-08-01T11:25:27;22.40;99.90
5631;DHT22;2837;50.990;7.124;2022-08-01T11:30:46;22.40;99.90
5631;DHT22;2837;50.990;7.124;2022-08-01T11:33:14;22.40;99.90
5631;DHT22;2837;50.990;7.124;2022-08-01T11:41:21;22.40;99.90
5631;DHT22;2837;50.990;7.124;2022-08-01T11:54:48;22.50;99.90
5631;DHT22;2837;50.990;7.124;2022-08-01T11:57:26;22.50;99.90
5631;DHT22;2837;50.990;7.124;2022-08-01T11:59:57;22.50;99.90
5631;DHT22;2837;50.990;7.124;2022-08-01T12:02:28;22.50;99.90
5631;DHT22;2837;50.990;7.124;2022-08-01T12:05:03;22.50;99.90
5631;DHT22;2837;50.990;7.124;2022-08-01T12:07:30;22.50;99.90
5631;DHT22;2837;50.990;7.124;2022-08-01T12:12:26;22.50;99.90
5631;DHT22;2837;50.990;7.124;2022-08-01T12:14:56;22.50;99.90
5631;DHT22;2837;50.990;7.124;2022-08-01T12:17:34;22.50;99.90
5631;DHT22;2837;50.990;7.124;2022-08-01T12:20:01;22.50;99.90
5631;DHT22;2837;50.990;7.124;2022-08-01T12:22:27;22.50;99.90
5631;DHT22;2837;50.990;7.124;2022-08-01T12:24:53;22.50;99.90
5631;DHT22;2837;50.990;7.124;2022-08-01T12:27:30;22.50;99.90
5631;DHT22;2837;50.990;7.124;2022-08-01T12:29:59;22.50;99.90
5631;DHT22;2837;50.990;7.124;2022-08-01T12:32:33;22.50;99.90
5631;DHT22;2837;50.990;7.124;2022-08-01T12:35:06;22.60;99.90
5631;DHT22;2837;50.990;7.124;2022-08-01T12:37:43;22.60;99.90
5631;DHT22;2837;50.990;7.124;2022-08-01T12:40:14;22.70;99.90
5631;DHT22;2837;50.990;7.124;2022-08-01T12:42:41;22.70;99.90
5631;DHT22;2837;50.990;7.124;2022-08-01T12:45:12;22.70;99.90
5631;DHT22;2837;50.990;7.124;2022-08-01T12:47:38;22.70;99.90
5631;DHT22;2837;50.990;7.124;2022-08-01T12:50:11;22.70;99.90
5631;DHT22;2837;50.990;7.124;2022-08-01T12:52:38;22.60;99.90
5631;DHT22;2837;50.990;7.124;2022-08-01T12:57:48;22.80;99.90
5631;DHT22;2837;50.990;7.124;2022-08-01T13:00:26;22.70;99.90
5631;DHT22;2837;50.990;7.124;2022-08-01T13:03:18;22.70;99.90
5631;DHT22;2837;50.990;7.124;2022-08-01T13:05:54;22.70;99.90
5631;DHT22;2837;50.990;7.124;2022-08-01T13:08:31;22.70;99.90
5631;DHT22;2837;50.990;7.124;2022-08-01T13:13:40;22.80;99.90
5631;DHT22;2837;50.990;7.124;2022-08-01T13:16:08;22.80;99.90
5631;DHT22;2837;50.990;7.124;2022-08-01T13:18:35;22.80;99.90
5631;DHT22;2837;50.990;7.124;2022-08-01T13:21:17;22.80;99.90
5631;DHT22;2837;50.990;7.124;2022-08-01T13:24:05;22.90;99.90
5631;DHT22;2837;50.990;7.124;2022-08-01T13:26:49;22.90;99.90
5631;DHT22;2837;50.990;7.124;2022-08-01T13:29:38;23.00;99.90
5631;DHT22;2837;50.990;7.124;2022-08-01T13:32:19;23.00;99.90
5631;DHT22;2837;50.990;7.124;2022-08-01T13:34:45;23.00;99.90
5631;DHT22;2837;50.990;7.124;2022-08-01T13:37:11;22.90;99.90
5631;DHT22;2837;50.990;7.124;2022-08-01T13:39:36;22.90;99.90
5631;DHT22;2837;50.990;7.124;2022-08-01T13:42:11;22.90;99.90
5631;DHT22;2837;50.990;7.124;2022-08-01T13:44:37;22.90;99.90
5631;DHT22;2837;50.990;7.124;2022-08-01T13:47:04;22.90;99.90
5631;DHT22;2837;50.990;7.124;2022-08-01T13:49:29;22.90;99.90
5631;DHT22;2837;50.990;7.124;2022-08-01T13:51:55;22.90;99.90
5631;DHT22;2837;50.990;7.124;2022-08-01T13:54:20;22.90;99.90
5631;DHT22;2837;50.990;7.124;2022-08-01T13:56:46;22.90;99.90
5631;DHT22;2837;50.990;7.124;2022-08-01T13:59:12;22.90;99.90
5631;DHT22;2837;50.990;7.124;2022-08-01T14:01:38;22.90;99.90
5631;DHT22;2837;50.990;7.124;2022-08-01T14:04:04;23.00;99.90
5631;DHT22;2837;50.990;7.124;2022-08-01T14:06:30;23.00;99.90
5631;DHT22;2837;50.990;7.124;2022-08-01T14:08:56;23.00;99.90
5631;DHT22;2837;50.990;7.124;2022-08-01T14:11:22;23.00;99.90
5631;DHT22;2837;50.990;7.124;2022-08-01T14:13:47;23.00;99.90
5631;DHT22;2837;50.990;7.124;2022-08-01T14:16:13;22.90;99.90
5631;DHT22;2837;50.990;7.124;2022-08-01T14:18:38;23.00;99.90
5631;DHT22;2837;50.990;7.124;2022-08-01T14:21:04;23.00;99.90
5631;DHT22;2837;50.990;7.124;2022-08-01T14:23:30;23.00;99.90
5631;DHT22;2837;50.990;7.124;2022-08-01T14:25:55;23.00;99.90
5631;DHT22;2837;50.990;7.124;2022-08-01T14:28:21;23.00;99.90
5631;DHT22;2837;50.990;7.124;2022-08-01T14:30:47;23.00;99.90
5631;DHT22;2837;50.990;7.124;2022-08-01T14:33:13;22.90;99.90
5631;DHT22;2837;50.990;7.124;2022-08-01T14:35:39;22.90;99.90
5631;DHT22;2837;50.990;7.124;2022-08-01T14:38:04;22.90;99.90
5631;DHT22;2837;50.990;7.124;2022-08-01T14:40:30;22.90;99.90
5631;DHT22;2837;50.990;7.124;2022-08-01T14:42:55;22.90;99.90
5631;DHT22;2837;50.990;7.124;2022-08-01T14:45:21;22.90;99.90
5631;DHT22;2837;50.990;7.124;2022-08-01T14:47:47;22.90;99.90
5631;DHT22;2837;50.990;7.124;2022-08-01T14:50:14;22.90;99.90
5631;DHT22;2837;50.990;7.124;2022-08-01T14:52:40;22.90;99.90
5631;DHT22;2837;50.990;7.124;2022-08-01T14:55:07;22.90;99.90
5631;DHT22;2837;50.990;7.124;2022-08-01T14:57:34;22.90;99.90
5631;DHT22;2837;50.990;7.124;2022-08-01T15:00:00;23.00;99.90
5631;DHT22;2837;50.990;7.124;2022-08-01T15:02:25;23.00;99.90
5631;DHT22;2837;50.990;7.124;2022-08-01T15:04:51;23.00;99.90
5631;DHT22;2837;50.990;7.124;2022-08-01T15:07:17;23.00;99.90
5631;DHT22;2837;50.990;7.124;2022-08-01T15:09:43;23.00;99.90
5631;DHT22;2837;50.990;7.124;2022-08-01T15:12:10;23.00;99.90
5631;DHT22;2837;50.990;7.124;2022-08-01T15:14:35;23.00;99.90
5631;DHT22;2837;50.990;7.124;2022-08-01T15:17:24;23.00;99.90
5631;DHT22;2837;50.990;7.124;2022-08-01T15:19:54;23.00;99.90
5631;DHT22;2837;50.990;7.124;2022-08-01T15:22:21;23.00;99.90
5631;DHT22;2837;50.990;7.124;2022-08-01T15:24:48;23.00;99.90
5631;DHT22;2837;50.990;7.124;2022-08-01T15:27:14;23.10;99.90
5631;DHT22;2837;50.990;7.124;2022-08-01T15:29:40;23.10;99.90
5631;DHT22;2837;50.990;7.124;2022-08-01T15:32:06;23.00;99.90
5631;DHT22;2837;50.990;7.124;2022-08-01T15:34:33;23.00;99.90
5631;DHT22;2837;50.990;7.124;2022-08-01T15:36:59;23.00;99.90
5631;DHT22;2837;50.990;7.124;2022-08-01T15:39:24;23.00;99.90
5631;DHT22;2837;50.990;7.124;2022-08-01T15:41:50;23.00;99.90
5631;DHT22;2837;50.990;7.124;2022-08-01T15:44:16;23.00;99.90
5631;DHT22;2837;50.990;7.124;2022-08-01T15:46:48;23.00;99.90
5631;DHT22;2837;50.990;7.124;2022-08-01T15:49:14;22.90;99.90
5631;DHT22;2837;50.990;7.124;2022-08-01T15:51:41;22.90;99.90
5631;DHT22;2837;50.990;7.124;2022-08-01T15:54:07;23.00;99.90
5631;DHT22;2837;50.990;7.124;2022-08-01T15:56:33;23.00;99.90
5631;DHT22;2837;50.990;7.124;2022-08-01T15:58:59;23.00;99.90
5631;DHT22;2837;50.990;7.124;2022-08-01T16:01:25;23.00;99.90
5631;DHT22;2837;50.990;7.124;2022-08-01T16:03:52;23.00;99.90
5631;DHT22;2837;50.990;7.124;2022-08-01T16:06:17;23.00;99.90
5631;DHT22;2837;50.990;7.124;2022-08-01T16:08:43;23.00;99.90
5631;DHT22;2837;50.990;7.124;2022-08-01T16:11:09;22.90;99.90
5631;DHT22;2837;50.990;7.124;2022-08-01T16:13:34;23.00;99.90
5631;DHT22;2837;50.990;7.124;2022-08-01T16:16:00;22.90;99.90
5631;DHT22;2837;50.990;7.124;2022-08-01T16:18:27;22.90;99.90
5631;DHT22;2837;50.990;7.124;2022-08-01T16:20:53;23.00;99.90
5631;DHT22;2837;50.990;7.124;2022-08-01T16:23:18;23.00;99.90
5631;DHT22;2837;50.990;7.124;2022-08-01T16:25:44;23.00;99.90
5631;DHT22;2837;50.990;7.124;2022-08-01T16:28:10;22.90;99.90
5631;DHT22;2837;50.990;7.124;2022-08-01T16:30:36;22.90;99.90
5631;DHT22;2837;50.990;7.124;2022-08-01T16:33:02;23.00;99.90
5631;DHT22;2837;50.990;7.124;2022-08-01T16:35:28;22.90;99.90
5631;DHT22;2837;50.990;7.124;2022-08-01T16:37:53;23.00;99.90
5631;DHT22;2837;50.990;7.124;2022-08-01T16:40:19;22.90;99.90
5631;DHT22;2837;50.990;7.124;2022-08-01T16:42:44;22.90;99.90
5631;DHT22;2837;50.990;7.124;2022-08-01T16:45:10;22.90;99.90
5631;DHT22;2837;50.990;7.124;2022-08-01T16:47:36;22.90;99.90
5631;DHT22;2837;50.990;7.124;2022-08-01T16:50:03;22.90;99.90
5631;DHT22;2837;50.990;7.124;2022-08-01T16:52:28;22.90;99.90
5631;DHT22;2837;50.990;7.124;2022-08-01T16:54:54;22.90;99.90
5631;DHT22;2837;50.990;7.124;2022-08-01T16:57:22;22.90;99.90
5631;DHT22;2837;50.990;7.124;2022-08-01T16:59:48;22.90;99.90
5631;DHT22;2837;50.990;7.124;2022-08-01T17:02:13;22.90;99.90
5631;DHT22;2837;50.990;7.124;2022-08-01T17:04:39;22.90;99.90
5631;DHT22;2837;50.990;7.124;2022-08-01T17:07:04;22.90;99.90
5631;DHT22;2837;50.990;7.124;2022-08-01T17:09:30;22.80;99.90
5631;DHT22;2837;50.990;7.124;2022-08-01T17:11:55;22.80;99.90
5631;DHT22;2837;50.990;7.124;2022-08-01T17:14:21;22.90;99.90
5631;DHT22;2837;50.990;7.124;2022-08-01T17:16:46;22.90;99.90
5631;DHT22;2837;50.990;7.124;2022-08-01T17:19:13;22.90;99.90
5631;DHT22;2837;50.990;7.124;2022-08-01T17:21:38;22.90;99.90
5631;DHT22;2837;50.990;7.124;2022-08-01T17:24:04;22.90;99.90
5631;DHT22;2837;50.990;7.124;2022-08-01T17:26:30;22.90;99.90
5631;DHT22;2837;50.990;7.124;2022-08-01T17:28:56;22.90;99.90
5631;DHT22;2837;50.990;7.124;2022-08-01T17:31:21;22.90;99.90
5631;DHT22;2837;50.990;7.124;2022-08-01T17:33:47;22.90;99.90
5631;DHT22;2837;50.990;7.124;2022-08-01T17:36:14;22.90;99.90
5631;DHT22;2837;50.990;7.124;2022-08-01T17:38:41;22.90;99.90
5631;DHT22;2837;50.990;7.124;2022-08-01T17:41:07;22.90;99.90
5631;DHT22;2837;50.990;7.124;2022-08-01T17:43:33;22.90;99.90
5631;DHT22;2837;50.990;7.124;2022-08-01T17:45:58;22.90;99.90
5631;DHT22;2837;50.990;7.124;2022-08-01T17:48:24;22.90;99.90
5631;DHT22;2837;50.990;7.124;2022-08-01T17:50:50;22.90;99.90
5631;DHT22;2837;50.990;7.124;2022-08-01T17:53:15;22.90;99.90
5631;DHT22;2837;50.990;7.124;2022-08-01T17:55:41;22.90;99.90
5631;DHT22;2837;50.990;7.124;2022-08-01T17:58:10;22.90;99.90
5631;DHT22;2837;50.990;7.124;2022-08-01T18:00:38;22.90;99.90
5631;DHT22;2837;50.990;7.124;2022-08-01T18:03:04;22.80;99.90
5631;DHT22;2837;50.990;7.124;2022-08-01T18:05:33;22.80;99.90
5631;DHT22;2837;50.990;7.124;2022-08-01T18:08:01;22.80;99.90
5631;DHT22;2837;50.990;7.124;2022-08-01T18:10:26;22.80;99.90
5631;DHT22;2837;50.990;7.124;2022-08-01T18:12:52;22.80;99.90
5631;DHT22;2837;50.990;7.124;2022-08-01T18:15:18;22.80;99.90
5631;DHT22;2837;50.990;7.124;2022-08-01T18:17:43;22.70;99.90
5631;DHT22;2837;50.990;7.124;2022-08-01T18:20:10;22.70;99.90
5631;DHT22;2837;50.990;7.124;2022-08-01T18:22:35;22.70;99.90
5631;DHT22;2837;50.990;7.124;2022-08-01T18:25:02;22.70;99.90
5631;DHT22;2837;50.990;7.124;2022-08-01T18:27:28;22.70;99.90
5631;DHT22;2837;50.990;7.124;2022-08-01T18:29:53;22.60;99.90
5631;DHT22;2837;50.990;7.124;2022-08-01T18:32:19;22.60;99.90
5631;DHT22;2837;50.990;7.124;2022-08-01T18:34:44;22.60;99.90
5631;DHT22;2837;50.990;7.124;2022-08-01T18:37:10;22.50;99.90
5631;DHT22;2837;50.990;7.124;2022-08-01T18:39:37;22.50;99.90
5631;DHT22;2837;50.990;7.124;2022-08-01T18:42:03;22.50;99.90
5631;DHT22;2837;50.990;7.124;2022-08-01T18:44:29;22.50;99.90
5631;DHT22;2837;50.990;7.124;2022-08-01T18:46:55;22.50;99.90
5631;DHT22;2837;50.990;7.124;2022-08-01T18:49:21;22.50;99.90
5631;DHT22;2837;50.990;7.124;2022-08-01T18:51:47;22.40;99.90
5631;DHT22;2837;50.990;7.124;2022-08-01T18:54:13;22.40;99.90
5631;DHT22;2837;50.990;7.124;2022-08-01T18:56:40;22.40;99.90
5631;DHT22;2837;50.990;7.124;2022-08-01T18:59:06;22.40;99.90
5631;DHT22;2837;50.990;7.124;2022-08-01T19:01:32;22.40;99.90
5631;DHT22;2837;50.990;7.124;2022-08-01T19:03:57;22.30;99.90
5631;DHT22;2837;50.990;7.124;2022-08-01T19:06:23;22.40;99.90
5631;DHT22;2837;50.990;7.124;2022-08-01T19:08:51;22.30;99.90
5631;DHT22;2837;50.990;7.124;2022-08-01T19:11:17;22.30;99.90
5631;DHT22;2837;50.990;7.124;2022-08-01T19:13:43;22.30;99.90
5631;DHT22;2837;50.990;7.124;2022-08-01T19:16:08;22.30;99.90
5631;DHT22;2837;50.990;7.124;2022-08-01T19:18:34;22.30;99.90
5631;DHT22;2837;50.990;7.124;2022-08-01T19:20:59;22.20;99.90
5631;DHT22;2837;50.990;7.124;2022-08-01T19:23:27;22.20;99.90
5631;DHT22;2837;50.990;7.124;2022-08-01T19:26:15;22.20;99.90
5631;DHT22;2837;50.990;7.124;2022-08-01T19:28:44;22.20;99.90
5631;DHT22;2837;50.990;7.124;2022-08-01T19:31:14;22.10;99.90
5631;DHT22;2837;50.990;7.124;2022-08-01T19:33:40;22.10;99.90
5631;DHT22;2837;50.990;7.124;2022-08-01T19:36:08;22.10;99.90
5631;DHT22;2837;50.990;7.124;2022-08-01T19:38:34;22.10;99.90
5631;DHT22;2837;50.990;7.124;2022-08-01T19:41:02;22.10;99.90
5631;DHT22;2837;50.990;7.124;2022-08-01T19:43:28;22.00;99.90
5631;DHT22;2837;50.990;7.124;2022-08-01T19:45:54;22.00;99.90
5631;DHT22;2837;50.990;7.124;2022-08-01T19:48:22;22.00;99.90
5631;DHT22;2837;50.990;7.124;2022-08-01T19:50:48;22.00;99.90
5631;DHT22;2837;50.990;7.124;2022-08-01T19:53:17;22.00;99.90
5631;DHT22;2837;50.990;7.124;2022-08-01T19:55:46;21.90;99.90
5631;DHT22;2837;50.990;7.124;2022-08-01T19:58:14;21.90;99.90
5631;DHT22;2837;50.990;7.124;2022-08-01T20:00:41;21.90;99.90
5631;DHT22;2837;50.990;7.124;2022-08-01T20:03:08;21.90;99.90
5631;DHT22;2837;50.990;7.124;2022-08-01T20:05:34;21.80;99.90
5631;DHT22;2837;50.990;7.124;2022-08-01T20:08:01;21.80;99.90
5631;DHT22;2837;50.990;7.124;2022-08-01T20:10:27;21.80;99.90
5631;DHT22;2837;50.990;7.124;2022-08-01T20:12:55;21.80;99.90
5631;DHT22;2837;50.990;7.124;2022-08-01T20:15:21;21.70;99.90
5631;DHT22;2837;50.990;7.124;2022-08-01T20:17:47;21.70;99.90
5631;DHT22;2837;50.990;7.124;2022-08-01T20:20:12;21.70;99.90
5631;DHT22;2837;50.990;7.124;2022-08-01T20:22:40;21.70;99.90
5631;DHT22;2837;50.990;7.124;2022-08-01T20:25:06;21.70;99.90
5631;DHT22;2837;50.990;7.124;2022-08-01T20:27:33;21.60;99.90
5631;DHT22;2837;50.990;7.124;2022-08-01T20:30:00;21.60;99.90
5631;DHT22;2837;50.990;7.124;2022-08-01T20:32:30;21.60;99.90
5631;DHT22;2837;50.990;7.124;2022-08-01T20:34:56;21.60;99.90
5631;DHT22;2837;50.990;7.124;2022-08-01T20:37:24;21.60;99.90
5631;DHT22;2837;50.990;7.124;2022-08-01T20:39:50;21.50;99.90
5631;DHT22;2837;50.990;7.124;2022-08-01T20:42:21;21.50;99.90
5631;DHT22;2837;50.990;7.124;2022-08-01T20:44:49;21.50;99.90
5631;DHT22;2837;50.990;7.124;2022-08-01T20:47:16;21.40;99.90
5631;DHT22;2837;50.990;7.124;2022-08-01T20:49:42;21.50;99.90
5631;DHT22;2837;50.990;7.124;2022-08-01T20:52:08;21.40;99.90
5631;DHT22;2837;50.990;7.124;2022-08-01T20:54:34;21.40;99.90
5631;DHT22;2837;50.990;7.124;2022-08-01T20:57:05;21.40;99.90
5631;DHT22;2837;50.990;7.124;2022-08-01T20:59:41;21.40;99.90
